Pride Of Rotterdam — PBAJ — position and weather

sailwx.info

Track history (hours):
 
Tides and Currents Weather Stations Pressure Air Temp Water Temp Dewpoint Dewpoint Depression Visibility Wind Speed Wind Dir Waves Ship Positions

Pride Of Rotterdam

Operator: P&O Ferries

Last reported at 2017-Jun-23 20:01 UTC. Time now 2017-Jun-23 20:27 UTC.
Position N 53°35' W 000°01'.

Length 214 m; draft 5.9 m.

Type: Ship. MMSI: 244980000.

Date/timePositionNaut miles runAvg speedWind from/ knotsBaromVisibWave heightAir tempDewpointWater temp
2017-Jun-23 20:01N 53°35' W 000°01'918.3
2017-Jun-23 19:30N 53°41' W 000°13'4 7.6
2017-Jun-23 18:59N 53°44' W 000°17'0 0.0
2017-Jun-23 18:29N 53°44' W 000°17'0 0.0
2017-Jun-23 18:00N 53°44' W 000°17'0 0.0
2017-Jun-23 17:30N 53°44' W 000°17'0 0.0
2017-Jun-23 17:00N 53°44' W 000°17'0 0.0
2017-Jun-23 16:30N 53°44' W 000°17'0 0.0
2017-Jun-23 16:00N 53°44' W 000°17'0 0.0
2017-Jun-23 15:30N 53°44' W 000°17'0 0.0
2017-Jun-23 15:00N 53°44' W 000°17'0 0.0
2017-Jun-23 14:00N 53°44' W 000°17'0 0.0
2017-Jun-23 13:30N 53°44' W 000°17'0 0.0
2017-Jun-23 13:00N 53°44' W 000°17'0 0.0
2017-Jun-23 12:30N 53°44' W 000°17'0 0.0
2017-Jun-23 12:00N 53°44' W 000°17'0 0.0
2017-Jun-23 11:30N 53°44' W 000°17'0 0.0
2017-Jun-23 11:00N 53°44' W 000°17'0 0.0
2017-Jun-23 10:30N 53°44' W 000°17'0 0.0
2017-Jun-23 10:00N 53°44' W 000°17'0 0.0
2017-Jun-23 09:30N 53°44' W 000°17'0 0.0
2017-Jun-23 09:00N 53°44' W 000°17'0 0.0
2017-Jun-23 08:30N 53°44' W 000°17'0 0.0
2017-Jun-23 08:00N 53°44' W 000°17'0 0.0
2017-Jun-23 07:30N 53°44' W 000°17'0 0.0
2017-Jun-23 07:00N 53°44' W 000°17'0 0.0
2017-Jun-23 06:30N 53°44' W 000°17'0 0.0
2017-Jun-23 06:00N 53°44' W 000°17'1 2.6
2017-Jun-23 05:30N 53°43' W 000°15'714.7
2017-Jun-23 05:00N 53°38' W 000°07'3817.4
2017-Jun-23 02:49N 53°23' E 000°52'617.8
2017-Jun-23 02:30N 53°20' E 000°60'918.1
2017-Jun-23 02:00N 53°13' E 001°10'918.2
2017-Jun-23 01:31N 53°06' E 001°20'1019.5
2017-Jun-23 01:00N 52°59' E 001°31'1020.5
2017-Jun-23 00:30N 52°52' E 001°44'1020.2
2017-Jun-23 00:00N 52°47' E 001°58'1019.2
2017-Jun-22 23:30N 52°42' E 002°12'6120.6
2017-Jun-22 20:32N 52°08' E 003°35'0 0.0
2017-Jun-22 20:30N 52°08' E 003°35'2 4.6
2017-Jun-22 20:00N 52°07' E 003°38'918.4
2017-Jun-22 19:30N 52°04' E 003°52'919.0
2017-Jun-22 19:01N 51°59' E 004°05'3 5.2
2017-Jun-22 18:30N 51°57' E 004°08'0 0.0
2017-Jun-22 18:00N 51°57' E 004°08'0 0.0
2017-Jun-22 17:30N 51°57' E 004°08'0 0.0
2017-Jun-22 17:00N 51°57' E 004°08'0 0.0
2017-Jun-22 16:30N 51°57' E 004°08'0 0.0
2017-Jun-22 16:00N 51°57' E 004°08'0 0.0
2017-Jun-22 15:30N 51°57' E 004°08'0 0.0
2017-Jun-22 15:01N 51°57' E 004°08'0 0.0
2017-Jun-22 14:30N 51°57' E 004°08'0 0.0
2017-Jun-22 13:30N 51°57' E 004°08'0 0.0
2017-Jun-22 13:00N 51°57' E 004°08'0 0.0
2017-Jun-22 12:30N 51°57' E 004°08'0 0.0
2017-Jun-22 12:00N 51°57' E 004°08'0 0.0
2017-Jun-22 11:30N 51°57' E 004°08'0 0.0
2017-Jun-22 11:00N 51°57' E 004°08'0 0.0
2017-Jun-22 10:30N 51°57' E 004°08'0 0.0
2017-Jun-22 10:00N 51°57' E 004°08'0 0.0
2017-Jun-22 09:30N 51°57' E 004°08'0 0.0
2017-Jun-22 09:00N 51°57' E 004°08'0 0.0
2017-Jun-22 08:30N 51°57' E 004°08'0 0.0
2017-Jun-22 08:00N 51°57' E 004°08'0 0.0
2017-Jun-22 07:30N 51°57' E 004°08'0 0.0
2017-Jun-22 07:00N 51°57' E 004°08'0 0.0
2017-Jun-22 06:30N 51°57' E 004°08'3 5.7
2017-Jun-22 06:01N 51°59' E 004°05'917.8
2017-Jun-22 05:31N 52°01' E 003°51'918.6
2017-Jun-22 05:00N 52°05' E 003°37'918.9
2017-Jun-22 04:31N 52°09' E 003°23'1019.3
2017-Jun-22 04:00N 52°16' E 003°11'1019.5
2017-Jun-22 03:30N 52°22' E 002°59'1019.3
2017-Jun-22 03:00N 52°28' E 002°47'919.0
2017-Jun-22 02:30N 52°34' E 002°35'1118.4
2017-Jun-22 01:55N 52°41' E 002°21'717.9
2017-Jun-22 01:30N 52°46' E 002°12'917.6
2017-Jun-22 01:00N 52°52' E 002°01'917.3
2017-Jun-22 00:31N 52°57' E 001°50'917.1
2017-Jun-22 00:01N 53°02' E 001°38'917.3
2017-Jun-21 23:31N 53°07' E 001°27'917.7
2017-Jun-21 23:00N 53°13' E 001°15'918.1
2017-Jun-21 22:30N 53°18' E 001°03'4017.2
2017-Jun-21 20:11N 53°35' E 000°02'517.7
2017-Jun-21 19:54N 53°37' W 000°06'513.4
2017-Jun-21 19:30N 53°40' W 000°13'5 9.3
2017-Jun-21 19:00N 53°44' W 000°17'0 0.0
2017-Jun-21 18:30N 53°44' W 000°17'0 0.0
2017-Jun-21 18:00N 53°44' W 000°17'0 0.0
2017-Jun-21 17:31N 53°44' W 000°17'0 0.0
2017-Jun-21 17:00N 53°44' W 000°17'0 0.0
2017-Jun-21 16:30N 53°44' W 000°17'0 0.0
2017-Jun-21 16:00N 53°44' W 000°17'0 0.0
2017-Jun-21 15:31N 53°44' W 000°17'0 0.0
2017-Jun-21 15:00N 53°44' W 000°17'0 0.0
2017-Jun-21 14:30N 53°44' W 000°17'0 0.0
2017-Jun-21 13:30N 53°44' W 000°17'0 0.0
2017-Jun-21 13:00N 53°44' W 000°17'0 0.0
2017-Jun-21 12:31N 53°44' W 000°17'0 0.0
2017-Jun-21 12:00N 53°44' W 000°17'0 0.0
2017-Jun-21 11:30N 53°44' W 000°17'0 0.0
2017-Jun-21 11:00N 53°44' W 000°17'0 0.0
2017-Jun-21 10:30N 53°44' W 000°17'0 0.0
2017-Jun-21 10:00N 53°44' W 000°17'0 0.0
2017-Jun-21 09:30N 53°44' W 000°17'0 0.0
2017-Jun-21 09:00N 53°44' W 000°17'0 0.0
2017-Jun-21 08:30N 53°44' W 000°17'0 0.0
2017-Jun-21 08:00N 53°44' W 000°17'0 0.0
2017-Jun-21 07:30N 53°44' W 000°17'0 0.0
2017-Jun-21 07:00N 53°44' W 000°17'0 0.0
2017-Jun-21 06:30N 53°44' W 000°17'0 0.0
2017-Jun-21 06:00N 53°44' W 000°17'1 2.7
2017-Jun-21 05:30N 53°43' W 000°15'612.1
2017-Jun-21 05:00N 53°38' W 000°09'1916.2
2017-Jun-21 03:49N 53°31' E 000°20'617.7
2017-Jun-21 03:30N 53°29' E 000°29'917.9
2017-Jun-21 03:00N 53°25' E 000°42'918.1
2017-Jun-21 02:30N 53°21' E 000°56'918.1
2017-Jun-21 02:00N 53°15' E 001°07'919.0
2017-Jun-21 01:31N 53°08' E 001°18'1019.8
2017-Jun-21 01:01N 53°01' E 001°29'1020.6
2017-Jun-21 00:31N 52°53' E 001°41'1020.9
2017-Jun-21 00:01N 52°48' E 001°56'1020.6
2017-Jun-20 23:30N 52°42' E 002°10'1020.0
2017-Jun-20 23:00N 52°37' E 002°25'1019.5
2017-Jun-20 22:30N 52°31' E 002°38'1019.3
2017-Jun-20 21:59N 52°25' E 002°51'920.1
2017-Jun-20 21:30N 52°20' E 003°04'1629.2
2017-Jun-20 20:58N 52°11' E 003°26'511.3
2017-Jun-20 20:30N 52°09' E 003°33'918.0
2017-Jun-20 20:00N 52°04' E 003°46'1019.5
2017-Jun-20 19:31N 52°00' E 004°00'611.6
2017-Jun-20 19:00N 51°57' E 004°08'0 0.6
2017-Jun-20 18:30N 51°57' E 004°08'0 0.0
2017-Jun-20 18:00N 51°57' E 004°08'0 0.0
2017-Jun-20 17:30N 51°57' E 004°08'0 0.0
2017-Jun-20 17:00N 51°57' E 004°08'0 0.0
2017-Jun-20 16:29N 51°57' E 004°08'0 0.0
2017-Jun-20 16:00N 51°57' E 004°08'0 0.0
2017-Jun-20 15:30N 51°57' E 004°08'0 0.0
2017-Jun-20 15:00N 51°57' E 004°08'0 0.0
2017-Jun-20 14:00N 51°57' E 004°08'0 0.0
2017-Jun-20 13:30N 51°57' E 004°08'0 0.0
2017-Jun-20 13:00N 51°57' E 004°08'0 0.0
2017-Jun-20 12:30N 51°57' E 004°08'0 0.0
2017-Jun-20 12:00N 51°57' E 004°08'0 0.0
2017-Jun-20 11:30N 51°57' E 004°08'0 0.0
2017-Jun-20 11:00N 51°57' E 004°08'0 0.0
2017-Jun-20 10:30N 51°57' E 004°08'0 0.0
2017-Jun-20 10:00N 51°57' E 004°08'0 0.0
2017-Jun-20 09:29N 51°57' E 004°08'0 0.0
2017-Jun-20 09:00N 51°57' E 004°08'0 0.0
2017-Jun-20 08:30N 51°57' E 004°08'0 0.0
2017-Jun-20 08:00N 51°57' E 004°08'0 0.0
2017-Jun-20 07:29N 51°57' E 004°08'0 0.0
2017-Jun-20 07:00N 51°57' E 004°08'0 0.0
2017-Jun-20 06:31N 51°57' E 004°08'3 6.0
2017-Jun-20 06:00N 51°59' E 004°04'917.6
2017-Jun-20 05:31N 52°01' E 003°51'918.0
2017-Jun-20 05:00N 52°05' E 003°37'918.6
2017-Jun-20 04:30N 52°09' E 003°24'919.0
2017-Jun-20 04:00N 52°15' E 003°11'1019.2
2017-Jun-20 03:30N 52°21' E 002°59'1119.4
2017-Jun-20 02:57N 52°28' E 002°45'1019.7
2017-Jun-20 02:26N 52°35' E 002°33'919.7
2017-Jun-20 02:00N 52°40' E 002°23'1019.3
2017-Jun-20 01:30N 52°47' E 002°12'1019.1
2017-Jun-20 01:00N 52°53' E 001°60'1019.2
2017-Jun-20 00:30N 52°59' E 001°46'1018.9
2017-Jun-20 00:00N 53°04' E 001°34'1018.7
2017-Jun-19 23:29N 53°10' E 001°20'918.5
2017-Jun-19 23:00N 53°15' E 001°09'1018.2
2017-Jun-19 22:28N 53°21' E 000°56'917.7
2017-Jun-19 21:59N 53°25' E 000°44'1117.8
2017-Jun-19 21:24N 53°31' E 000°28'717.0
2017-Jun-19 21:00N 53°33' E 000°17'1016.4
2017-Jun-19 20:25N 53°35' E 000°02'716.0
2017-Jun-19 20:00N 53°38' W 000°08'611.3
2017-Jun-19 19:30N 53°42' W 000°14'3 5.4
2017-Jun-19 19:00N 53°44' W 000°17'0 0.0
2017-Jun-19 18:30N 53°44' W 000°17'0 0.0
2017-Jun-19 18:00N 53°44' W 000°17'0 0.0
2017-Jun-19 17:30N 53°44' W 000°17'0 0.0
2017-Jun-19 17:00N 53°44' W 000°17'0 0.0
2017-Jun-19 16:29N 53°44' W 000°17'0 0.0
2017-Jun-19 15:59N 53°44' W 000°17'0 0.0
2017-Jun-19 15:29N 53°44' W 000°17'0 0.0
2017-Jun-19 14:59N 53°44' W 000°17'0 0.0
2017-Jun-19 14:25N 53°44' W 000°17'0 0.0
2017-Jun-19 13:25N 53°44' W 000°17'0 0.0
2017-Jun-19 12:58N 53°44' W 000°17'0 0.0
2017-Jun-19 12:25N 53°44' W 000°17'0 0.0
2017-Jun-19 12:00N 53°44' W 000°17'0 0.0
2017-Jun-19 11:30N 53°44' W 000°17'0 0.0
2017-Jun-19 11:00N 53°44' W 000°17'0 0.0
2017-Jun-19 10:30N 53°44' W 000°17'0 0.0
2017-Jun-19 10:00N 53°44' W 000°17'0 0.0
2017-Jun-19 09:29N 53°44' W 000°17'0 0.0
2017-Jun-19 08:59N 53°44' W 000°17'0 0.0
2017-Jun-19 08:29N 53°44' W 000°17'0 0.0
2017-Jun-19 07:59N 53°44' W 000°17'0 0.1
2017-Jun-19 07:28N 53°44' W 000°17'0 0.1
2017-Jun-19 06:58N 53°44' W 000°17'0 0.0
2017-Jun-19 06:28N 53°44' W 000°17'0 0.0
2017-Jun-19 06:00N 53°44' W 000°17'2 3.1
2017-Jun-19 05:30N 53°43' W 000°15'611.7
2017-Jun-19 05:00N 53°38' W 000°10'813.1
2017-Jun-19 04:24N 53°35' E 000°02'1415.7
2017-Jun-19 03:31N 53°33' E 000°25'017.8
2017-Jun-19 03:30N 53°32' E 000°26'1118.3
2017-Jun-19 02:53N 53°26' E 000°41'718.1
2017-Jun-19 02:30N 53°23' E 000°51'917.6
2017-Jun-19 02:00N 53°18' E 001°04'817.2
2017-Jun-19 01:30N 53°12' E 001°14'917.2
2017-Jun-19 01:00N 53°08' E 001°26'917.7
2017-Jun-19 00:30N 53°03' E 001°38'918.0
2017-Jun-19 00:00N 52°57' E 001°51'4419.1
2017-Jun-18 21:41N 52°29' E 002°47'318.9
2017-Jun-18 21:30N 52°27' E 002°52'1218.7
2017-Jun-18 20:51N 52°20' E 003°08'2129.4
2017-Jun-18 20:08N 52°08' E 003°36'0 0.0
2017-Jun-18 20:00N 52°08' E 003°36'4 7.5
2017-Jun-18 19:30N 52°06' E 003°41'918.6
2017-Jun-18 19:00N 52°02' E 003°55'917.1
2017-Jun-18 18:30N 51°58' E 004°07'2 3.0
2017-Jun-18 18:00N 51°57' E 004°08'0 0.0
2017-Jun-18 17:30N 51°57' E 004°08'0 0.0
2017-Jun-18 17:00N 51°57' E 004°08'0 0.0
2017-Jun-18 16:29N 51°57' E 004°08'0 0.0
2017-Jun-18 16:00N 51°57' E 004°08'0 0.0
2017-Jun-18 15:30N 51°57' E 004°08'0 0.0
2017-Jun-18 15:00N 51°57' E 004°08'0 0.0
2017-Jun-18 14:00N 51°57' E 004°08'0 0.0
2017-Jun-18 13:30N 51°57' E 004°08'0 0.0
2017-Jun-18 13:00N 51°57' E 004°08'0 0.0
2017-Jun-18 12:30N 51°57' E 004°08'0 0.0
2017-Jun-18 12:00N 51°57' E 004°08'0 0.0
2017-Jun-18 11:30N 51°57' E 004°08'0 0.0
2017-Jun-18 11:00N 51°57' E 004°08'0 0.0
2017-Jun-18 10:29N 51°57' E 004°08'0 0.0
2017-Jun-18 10:00N 51°57' E 004°08'0 0.0
2017-Jun-18 09:30N 51°57' E 004°08'0 0.0
2017-Jun-18 09:00N 51°57' E 004°08'0 0.0
2017-Jun-18 08:30N 51°57' E 004°08'0 0.0
2017-Jun-18 08:00N 51°57' E 004°08'0 0.0
2017-Jun-18 07:29N 51°57' E 004°08'0 0.0
2017-Jun-18 07:00N 51°57' E 004°08'3 6.0
2017-Jun-18 06:31N 51°59' E 004°05'917.5
2017-Jun-18 06:01N 52°01' E 003°51'917.1
2017-Jun-18 05:31N 52°05' E 003°38'917.9
2017-Jun-18 05:00N 52°09' E 003°25'916.9
2017-Jun-18 04:30N 52°14' E 003°14'4317.3
2017-Jun-18 02:01N 52°39' E 002°16'917.9
2017-Jun-18 01:31N 52°44' E 002°04'918.1
2017-Jun-18 01:01N 52°48' E 001°51'918.2
2017-Jun-18 00:30N 52°53' E 001°38'918.0
2017-Jun-18 00:01N 52°57' E 001°24'917.4
2017-Jun-17 23:30N 53°00' E 001°11'4716.4
2017-Jun-17 20:38N 53°32' E 000°14'214.4
2017-Jun-17 20:28N 53°32' E 000°10'714.5
2017-Jun-17 20:00N 53°35' W 000°00'612.9
2017-Jun-17 19:31N 53°38' W 000°10'510.7
2017-Jun-17 19:01N 53°43' W 000°15'2 3.7
2017-Jun-17 18:28N 53°44' W 000°17'0 0.0
2017-Jun-17 17:58N 53°44' W 000°17'0 0.0
2017-Jun-17 17:28N 53°44' W 000°17'0 0.0
2017-Jun-17 17:00N 53°44' W 000°17'0 0.0
2017-Jun-17 16:30N 53°44' W 000°17'0 0.0
2017-Jun-17 16:00N 53°44' W 000°17'0 0.0
2017-Jun-17 15:30N 53°44' W 000°17'0 0.0
2017-Jun-17 15:00N 53°44' W 000°17'0 0.0
2017-Jun-17 13:59N 53°44' W 000°17'0 0.0
2017-Jun-17 13:26N 53°44' W 000°17'0 0.0
2017-Jun-17 12:59N 53°44' W 000°17'0 0.0
2017-Jun-17 12:29N 53°44' W 000°17'0 0.0
2017-Jun-17 11:58N 53°44' W 000°17'0 0.0
2017-Jun-17 11:28N 53°44' W 000°17'0 0.0
2017-Jun-17 10:58N 53°44' W 000°17'0 0.0
2017-Jun-17 10:28N 53°44' W 000°17'0 0.0
2017-Jun-17 10:00N 53°44' W 000°17'0 0.0
2017-Jun-17 09:30N 53°44' W 000°17'0 0.0
2017-Jun-17 09:00N 53°44' W 000°17'0 0.0
2017-Jun-17 08:30N 53°44' W 000°17'0 0.0
2017-Jun-17 08:00N 53°44' W 000°17'0 0.0
2017-Jun-17 07:29N 53°44' W 000°17'0 0.0
2017-Jun-17 07:00N 53°44' W 000°17'3 6.6
2017-Jun-17 06:30N 53°42' W 000°14'612.1
2017-Jun-17 06:00N 53°37' W 000°07'817.1
2017-Jun-17 05:30N 53°34' E 000°07'2315.6
2017-Jun-17 04:04N 53°26' E 000°42'616.2
2017-Jun-17 03:40N 53°23' E 000°51'316.0
2017-Jun-17 03:29N 53°21' E 000°56'815.6
2017-Jun-17 03:00N 53°17' E 001°06'715.2
2017-Jun-17 02:30N 53°12' E 001°16'815.0
2017-Jun-17 02:00N 53°08' E 001°26'714.8
2017-Jun-17 01:30N 53°03' E 001°36'714.6
2017-Jun-17 01:00N 52°59' E 001°45'714.4
2017-Jun-17 00:30N 52°55' E 001°55'714.6
2017-Jun-17 00:00N 52°50' E 002°04'1116.2
2017-Jun-16 23:21N 52°43' E 002°18'5420.3
2017-Jun-16 20:43N 52°11' E 003°28'0 0.0
2017-Jun-16 20:30N 52°11' E 003°28'611.4
2017-Jun-16 20:00N 52°08' E 003°36'917.5
2017-Jun-16 19:30N 52°04' E 003°49'917.2
2017-Jun-16 19:00N 52°00' E 004°01'510.7
2017-Jun-16 18:30N 51°57' E 004°08'0 0.4
2017-Jun-16 18:00N 51°57' E 004°08'0 0.0
2017-Jun-16 17:30N 51°57' E 004°08'0 0.0
2017-Jun-16 16:58N 51°57' E 004°08'0 0.0
2017-Jun-16 16:30N 51°57' E 004°08'0 0.0
2017-Jun-16 16:00N 51°57' E 004°08'0 0.0
2017-Jun-16 15:30N 51°57' E 004°08'0 0.0
2017-Jun-16 15:00N 51°57' E 004°08'0 0.0
2017-Jun-16 14:00N 51°57' E 004°08'0 0.0
2017-Jun-16 13:30N 51°57' E 004°08'0 0.0
2017-Jun-16 13:00N 51°57' E 004°08'0 0.0
2017-Jun-16 12:30N 51°57' E 004°08'0 0.0
2017-Jun-16 12:00N 51°57' E 004°08'0 0.0
2017-Jun-16 11:30N 51°57' E 004°08'0 0.0
2017-Jun-16 11:00N 51°57' E 004°08'0 0.0
2017-Jun-16 10:30N 51°57' E 004°08'0 0.0
2017-Jun-16 10:00N 51°57' E 004°08'0 0.0
2017-Jun-16 09:30N 51°57' E 004°08'0 0.0
2017-Jun-16 09:00N 51°57' E 004°08'0 0.0
2017-Jun-16 08:30N 51°57' E 004°08'0 0.0
2017-Jun-16 08:00N 51°57' E 004°08'0 0.0
2017-Jun-16 07:30N 51°57' E 004°08'0 0.0
2017-Jun-16 07:00N 51°57' E 004°08'0 0.0
2017-Jun-16 06:31N 51°57' E 004°08'2 4.1
2017-Jun-16 06:01N 51°58' E 004°06'918.0
2017-Jun-16 05:31N 52°01' E 003°52'816.7
2017-Jun-16 05:00N 52°05' E 003°40'6817.5
2017-Jun-16 01:08N 52°41' E 002°07'319.4
2017-Jun-16 01:00N 52°43' E 002°03'1019.9
2017-Jun-16 00:31N 52°49' E 001°50'1020.0
2017-Jun-16 00:00N 52°54' E 001°36'1020.4
2017-Jun-15 23:31N 52°59' E 001°21'5319.6
2017-Jun-15 20:49N 53°33' E 000°13'617.3
2017-Jun-15 20:29N 53°34' E 000°04'816.6
2017-Jun-15 20:00N 53°38' W 000°08'612.8
2017-Jun-15 19:30N 53°43' W 000°14'2 4.2
2017-Jun-15 19:00N 53°44' W 000°17'0 0.0
2017-Jun-15 18:29N 53°44' W 000°17'0 0.0
2017-Jun-15 18:00N 53°44' W 000°17'0 0.0
2017-Jun-15 17:29N 53°44' W 000°17'0 0.0
2017-Jun-15 16:59N 53°44' W 000°17'0 0.0
2017-Jun-15 16:29N 53°44' W 000°17'0 0.0
2017-Jun-15 15:58N 53°44' W 000°17'0 0.0
2017-Jun-15 15:28N 53°44' W 000°17'0 0.0
2017-Jun-15 14:58N 53°44' W 000°17'0 0.0
2017-Jun-15 13:58N 53°44' W 000°17'0 0.0
2017-Jun-15 13:30N 53°44' W 000°17'0 0.0
2017-Jun-15 13:00N 53°44' W 000°17'0 0.0
2017-Jun-15 12:30N 53°44' W 000°17'0 0.0
2017-Jun-15 12:00N 53°44' W 000°17'0 0.0
2017-Jun-15 11:29N 53°44' W 000°17'0 0.0
2017-Jun-15 10:59N 53°44' W 000°17'0 0.0
2017-Jun-15 10:29N 53°44' W 000°17'0 0.0
2017-Jun-15 09:59N 53°44' W 000°17'0 0.0
2017-Jun-15 09:29N 53°44' W 000°17'0 0.0
2017-Jun-15 08:58N 53°44' W 000°17'0 0.0
2017-Jun-15 08:28N 53°44' W 000°17'0 0.0
2017-Jun-15 07:58N 53°44' W 000°17'0 0.0
2017-Jun-15 07:28N 53°44' W 000°17'0 0.0
2017-Jun-15 07:00N 53°44' W 000°17'0 0.0
2017-Jun-15 06:30N 53°44' W 000°17'0 0.0
2017-Jun-15 06:01N 53°44' W 000°17'3 5.9
2017-Jun-15 05:30N 53°42' W 000°14'713.7
2017-Jun-15 05:00N 53°37' W 000°06'917.9
2017-Jun-15 04:30N 53°34' E 000°08'2817.5
2017-Jun-15 02:55N 53°23' E 000°51'919.4
2017-Jun-15 02:28N 53°18' E 001°03'919.5
2017-Jun-15 02:00N 53°12' E 001°15'1019.3
2017-Jun-15 01:30N 53°07' E 001°28'918.5
2017-Jun-15 01:00N 53°02' E 001°41'918.3
2017-Jun-15 00:30N 52°57' E 001°54'917.9
2017-Jun-15 00:00N 52°51' E 002°06'917.8
2017-Jun-14 23:30N 52°44' E 002°15'918.3
2017-Jun-14 23:00N 52°38' E 002°26'1019.3
2017-Jun-14 22:30N 52°33' E 002°39'1019.8
2017-Jun-14 22:00N 52°27' E 002°53'1120.0
2017-Jun-14 21:26N 52°21' E 003°08'920.2
2017-Jun-14 21:00N 52°15' E 003°19'1020.3
2017-Jun-14 20:30N 52°08' E 003°32'1020.1
2017-Jun-14 20:00N 52°04' E 003°46'1019.7
2017-Jun-14 19:30N 51°60' E 004°01'510.7
2017-Jun-14 19:00N 51°57' E 004°08'0 0.4
2017-Jun-14 18:26N 51°57' E 004°08'0 0.0
2017-Jun-14 17:58N 51°57' E 004°08'0 0.0
2017-Jun-14 17:25N 51°57' E 004°08'0 0.0
2017-Jun-14 16:58N 51°57' E 004°08'0 0.0
2017-Jun-14 16:28N 51°57' E 004°08'0 0.0
2017-Jun-14 16:00N 51°57' E 004°08'0 0.0
2017-Jun-14 15:28N 51°57' E 004°08'0 0.0
2017-Jun-14 15:00N 51°57' E 004°08'0 0.0
2017-Jun-14 14:00N 51°57' E 004°08'0 0.0
2017-Jun-14 13:29N 51°57' E 004°08'0 0.0
2017-Jun-14 13:00N 51°57' E 004°08'0 0.0
2017-Jun-14 12:26N 51°57' E 004°08'0 0.0
2017-Jun-14 11:59N 51°57' E 004°08'0 0.0
2017-Jun-14 11:29N 51°57' E 004°08'0 0.0
2017-Jun-14 10:58N 51°57' E 004°08'0 0.0
2017-Jun-14 10:28N 51°57' E 004°08'0 0.0
2017-Jun-14 09:58N 51°57' E 004°08'0 0.0
2017-Jun-14 09:25N 51°57' E 004°08'0 0.0
2017-Jun-14 09:00N 51°57' E 004°08'0 0.0
2017-Jun-14 08:30N 51°57' E 004°08'0 0.0
2017-Jun-14 07:57N 51°57' E 004°08'0 0.0
2017-Jun-14 07:30N 51°57' E 004°08'0 0.0
2017-Jun-14 07:00N 51°57' E 004°08'0 0.0
2017-Jun-14 06:30N 51°57' E 004°08'2 4.4
2017-Jun-14 06:00N 51°58' E 004°06'917.1
2017-Jun-14 05:30N 52°01' E 003°53'917.8
2017-Jun-14 05:00N 52°04' E 003°39'917.6
2017-Jun-14 04:30N 52°09' E 003°27'917.4
2017-Jun-14 04:01N 52°13' E 003°15'917.5
2017-Jun-14 03:30N 52°18' E 003°03'917.7
2017-Jun-14 02:59N 52°24' E 002°51'1717.7
2017-Jun-14 02:01N 52°33' E 002°27'117.8
2017-Jun-14 01:57N 52°34' E 002°25'817.9
2017-Jun-14 01:30N 52°38' E 002°14'918.0
2017-Jun-14 01:00N 52°44' E 002°03'918.6
2017-Jun-14 00:30N 52°49' E 001°50'1019.2
2017-Jun-14 00:00N 52°53' E 001°36'1019.4
2017-Jun-13 23:30N 52°58' E 001°22'5018.5
2017-Jun-13 20:50N 53°30' E 000°19'517.1
2017-Jun-13 20:30N 53°33' E 000°11'  
Track history (hours):
 
Tides and Currents Weather Stations Pressure Air Temp Water Temp Dewpoint Dewpoint Depression Visibility Wind Speed Wind Dir Waves Ship Positions

Pride Of Rotterdam

Operator: P&O Ferries

Last reported at 2017-Jun-23 20:01 UTC. Time now 2017-Jun-23 20:27 UTC.
Position N 53°35' W 000°01'.

Length 214 m; draft 5.9 m.

Type: Ship. MMSI: 244980000.

Date/timePositionNaut miles runAvg speedWind from/ knotsBaromVisibWave heightAir tempDewpointWater temp
2017-Jun-23 20:01N 53°35' W 000°01'918.3
2017-Jun-23 19:30N 53°41' W 000°13'4 7.6
2017-Jun-23 18:59N 53°44' W 000°17'0 0.0
2017-Jun-23 18:29N 53°44' W 000°17'0 0.0
2017-Jun-23 18:00N 53°44' W 000°17'0 0.0
2017-Jun-23 17:30N 53°44' W 000°17'0 0.0
2017-Jun-23 17:00N 53°44' W 000°17'0 0.0
2017-Jun-23 16:30N 53°44' W 000°17'0 0.0
2017-Jun-23 16:00N 53°44' W 000°17'0 0.0
2017-Jun-23 15:30N 53°44' W 000°17'0 0.0
2017-Jun-23 15:00N 53°44' W 000°17'0 0.0
2017-Jun-23 14:00N 53°44' W 000°17'0 0.0
2017-Jun-23 13:30N 53°44' W 000°17'0 0.0
2017-Jun-23 13:00N 53°44' W 000°17'0 0.0
2017-Jun-23 12:30N 53°44' W 000°17'0 0.0
2017-Jun-23 12:00N 53°44' W 000°17'0 0.0
2017-Jun-23 11:30N 53°44' W 000°17'0 0.0
2017-Jun-23 11:00N 53°44' W 000°17'0 0.0
2017-Jun-23 10:30N 53°44' W 000°17'0 0.0
2017-Jun-23 10:00N 53°44' W 000°17'0 0.0
2017-Jun-23 09:30N 53°44' W 000°17'0 0.0
2017-Jun-23 09:00N 53°44' W 000°17'0 0.0
2017-Jun-23 08:30N 53°44' W 000°17'0 0.0
2017-Jun-23 08:00N 53°44' W 000°17'0 0.0
2017-Jun-23 07:30N 53°44' W 000°17'0 0.0
2017-Jun-23 07:00N 53°44' W 000°17'0 0.0
2017-Jun-23 06:30N 53°44' W 000°17'0 0.0
2017-Jun-23 06:00N 53°44' W 000°17'1 2.6
2017-Jun-23 05:30N 53°43' W 000°15'714.7
2017-Jun-23 05:00N 53°38' W 000°07'3817.4
2017-Jun-23 02:49N 53°23' E 000°52'617.8
2017-Jun-23 02:30N 53°20' E 000°60'918.1
2017-Jun-23 02:00N 53°13' E 001°10'918.2
2017-Jun-23 01:31N 53°06' E 001°20'1019.5
2017-Jun-23 01:00N 52°59' E 001°31'1020.5
2017-Jun-23 00:30N 52°52' E 001°44'1020.2
2017-Jun-23 00:00N 52°47' E 001°58'1019.2
2017-Jun-22 23:30N 52°42' E 002°12'6120.6
2017-Jun-22 20:32N 52°08' E 003°35'0 0.0
2017-Jun-22 20:30N 52°08' E 003°35'2 4.6
2017-Jun-22 20:00N 52°07' E 003°38'918.4
2017-Jun-22 19:30N 52°04' E 003°52'919.0
2017-Jun-22 19:01N 51°59' E 004°05'3 5.2
2017-Jun-22 18:30N 51°57' E 004°08'0 0.0
2017-Jun-22 18:00N 51°57' E 004°08'0 0.0
2017-Jun-22 17:30N 51°57' E 004°08'0 0.0
2017-Jun-22 17:00N 51°57' E 004°08'0 0.0
2017-Jun-22 16:30N 51°57' E 004°08'0 0.0
2017-Jun-22 16:00N 51°57' E 004°08'0 0.0
2017-Jun-22 15:30N 51°57' E 004°08'0 0.0
2017-Jun-22 15:01N 51°57' E 004°08'0 0.0
2017-Jun-22 14:30N 51°57' E 004°08'0 0.0
2017-Jun-22 13:30N 51°57' E 004°08'0 0.0
2017-Jun-22 13:00N 51°57' E 004°08'0 0.0
2017-Jun-22 12:30N 51°57' E 004°08'0 0.0
2017-Jun-22 12:00N 51°57' E 004°08'0 0.0
2017-Jun-22 11:30N 51°57' E 004°08'0 0.0
2017-Jun-22 11:00N 51°57' E 004°08'0 0.0
2017-Jun-22 10:30N 51°57' E 004°08'0 0.0
2017-Jun-22 10:00N 51°57' E 004°08'0 0.0
2017-Jun-22 09:30N 51°57' E 004°08'0 0.0
2017-Jun-22 09:00N 51°57' E 004°08'0 0.0
2017-Jun-22 08:30N 51°57' E 004°08'0 0.0
2017-Jun-22 08:00N 51°57' E 004°08'0 0.0
2017-Jun-22 07:30N 51°57' E 004°08'0 0.0
2017-Jun-22 07:00N 51°57' E 004°08'0 0.0
2017-Jun-22 06:30N 51°57' E 004°08'3 5.7
2017-Jun-22 06:01N 51°59' E 004°05'917.8
2017-Jun-22 05:31N 52°01' E 003°51'918.6
2017-Jun-22 05:00N 52°05' E 003°37'918.9
2017-Jun-22 04:31N 52°09' E 003°23'1019.3
2017-Jun-22 04:00N 52°16' E 003°11'1019.5
2017-Jun-22 03:30N 52°22' E 002°59'1019.3
2017-Jun-22 03:00N 52°28' E 002°47'919.0
2017-Jun-22 02:30N 52°34' E 002°35'1118.4
2017-Jun-22 01:55N 52°41' E 002°21'717.9
2017-Jun-22 01:30N 52°46' E 002°12'917.6
2017-Jun-22 01:00N 52°52' E 002°01'917.3
2017-Jun-22 00:31N 52°57' E 001°50'917.1
2017-Jun-22 00:01N 53°02' E 001°38'917.3
2017-Jun-21 23:31N 53°07' E 001°27'917.7
2017-Jun-21 23:00N 53°13' E 001°15'918.1
2017-Jun-21 22:30N 53°18' E 001°03'4017.2
2017-Jun-21 20:11N 53°35' E 000°02'517.7
2017-Jun-21 19:54N 53°37' W 000°06'513.4
2017-Jun-21 19:30N 53°40' W 000°13'5 9.3
2017-Jun-21 19:00N 53°44' W 000°17'0 0.0
2017-Jun-21 18:30N 53°44' W 000°17'0 0.0
2017-Jun-21 18:00N 53°44' W 000°17'0 0.0
2017-Jun-21 17:31N 53°44' W 000°17'0 0.0
2017-Jun-21 17:00N 53°44' W 000°17'0 0.0
2017-Jun-21 16:30N 53°44' W 000°17'0 0.0
2017-Jun-21 16:00N 53°44' W 000°17'0 0.0
2017-Jun-21 15:31N 53°44' W 000°17'0 0.0
2017-Jun-21 15:00N 53°44' W 000°17'0 0.0
2017-Jun-21 14:30N 53°44' W 000°17'0 0.0
2017-Jun-21 13:30N 53°44' W 000°17'0 0.0
2017-Jun-21 13:00N 53°44' W 000°17'0 0.0
2017-Jun-21 12:31N 53°44' W 000°17'0 0.0
2017-Jun-21 12:00N 53°44' W 000°17'0 0.0
2017-Jun-21 11:30N 53°44' W 000°17'0 0.0
2017-Jun-21 11:00N 53°44' W 000°17'0 0.0
2017-Jun-21 10:30N 53°44' W 000°17'0 0.0
2017-Jun-21 10:00N 53°44' W 000°17'0 0.0
2017-Jun-21 09:30N 53°44' W 000°17'0 0.0
2017-Jun-21 09:00N 53°44' W 000°17'0 0.0
2017-Jun-21 08:30N 53°44' W 000°17'0 0.0
2017-Jun-21 08:00N 53°44' W 000°17'0 0.0
2017-Jun-21 07:30N 53°44' W 000°17'0 0.0
2017-Jun-21 07:00N 53°44' W 000°17'0 0.0
2017-Jun-21 06:30N 53°44' W 000°17'0 0.0
2017-Jun-21 06:00N 53°44' W 000°17'1 2.7
2017-Jun-21 05:30N 53°43' W 000°15'612.1
2017-Jun-21 05:00N 53°38' W 000°09'1916.2
2017-Jun-21 03:49N 53°31' E 000°20'617.7
2017-Jun-21 03:30N 53°29' E 000°29'917.9
2017-Jun-21 03:00N 53°25' E 000°42'918.1
2017-Jun-21 02:30N 53°21' E 000°56'918.1
2017-Jun-21 02:00N 53°15' E 001°07'919.0
2017-Jun-21 01:31N 53°08' E 001°18'1019.8
2017-Jun-21 01:01N 53°01' E 001°29'1020.6
2017-Jun-21 00:31N 52°53' E 001°41'1020.9
2017-Jun-21 00:01N 52°48' E 001°56'1020.6
2017-Jun-20 23:30N 52°42' E 002°10'1020.0
2017-Jun-20 23:00N 52°37' E 002°25'1019.5
2017-Jun-20 22:30N 52°31' E 002°38'1019.3
2017-Jun-20 21:59N 52°25' E 002°51'920.1
2017-Jun-20 21:30N 52°20' E 003°04'1629.2
2017-Jun-20 20:58N 52°11' E 003°26'511.3
2017-Jun-20 20:30N 52°09' E 003°33'918.0
2017-Jun-20 20:00N 52°04' E 003°46'1019.5
2017-Jun-20 19:31N 52°00' E 004°00'611.6
2017-Jun-20 19:00N 51°57' E 004°08'0 0.6
2017-Jun-20 18:30N 51°57' E 004°08'0 0.0
2017-Jun-20 18:00N 51°57' E 004°08'0 0.0
2017-Jun-20 17:30N 51°57' E 004°08'0 0.0
2017-Jun-20 17:00N 51°57' E 004°08'0 0.0
2017-Jun-20 16:29N 51°57' E 004°08'0 0.0
2017-Jun-20 16:00N 51°57' E 004°08'0 0.0
2017-Jun-20 15:30N 51°57' E 004°08'0 0.0
2017-Jun-20 15:00N 51°57' E 004°08'0 0.0
2017-Jun-20 14:00N 51°57' E 004°08'0 0.0
2017-Jun-20 13:30N 51°57' E 004°08'0 0.0
2017-Jun-20 13:00N 51°57' E 004°08'0 0.0
2017-Jun-20 12:30N 51°57' E 004°08'0 0.0
2017-Jun-20 12:00N 51°57' E 004°08'0 0.0
2017-Jun-20 11:30N 51°57' E 004°08'0 0.0
2017-Jun-20 11:00N 51°57' E 004°08'0 0.0
2017-Jun-20 10:30N 51°57' E 004°08'0 0.0
2017-Jun-20 10:00N 51°57' E 004°08'0 0.0
2017-Jun-20 09:29N 51°57' E 004°08'0 0.0
2017-Jun-20 09:00N 51°57' E 004°08'0 0.0
2017-Jun-20 08:30N 51°57' E 004°08'0 0.0
2017-Jun-20 08:00N 51°57' E 004°08'0 0.0
2017-Jun-20 07:29N 51°57' E 004°08'0 0.0
2017-Jun-20 07:00N 51°57' E 004°08'0 0.0
2017-Jun-20 06:31N 51°57' E 004°08'3 6.0
2017-Jun-20 06:00N 51°59' E 004°04'917.6
2017-Jun-20 05:31N 52°01' E 003°51'918.0
2017-Jun-20 05:00N 52°05' E 003°37'918.6
2017-Jun-20 04:30N 52°09' E 003°24'919.0
2017-Jun-20 04:00N 52°15' E 003°11'1019.2
2017-Jun-20 03:30N 52°21' E 002°59'1119.4
2017-Jun-20 02:57N 52°28' E 002°45'1019.7
2017-Jun-20 02:26N 52°35' E 002°33'919.7
2017-Jun-20 02:00N 52°40' E 002°23'1019.3
2017-Jun-20 01:30N 52°47' E 002°12'1019.1
2017-Jun-20 01:00N 52°53' E 001°60'1019.2
2017-Jun-20 00:30N 52°59' E 001°46'1018.9
2017-Jun-20 00:00N 53°04' E 001°34'1018.7
2017-Jun-19 23:29N 53°10' E 001°20'918.5
2017-Jun-19 23:00N 53°15' E 001°09'1018.2
2017-Jun-19 22:28N 53°21' E 000°56'917.7
2017-Jun-19 21:59N 53°25' E 000°44'1117.8
2017-Jun-19 21:24N 53°31' E 000°28'717.0
2017-Jun-19 21:00N 53°33' E 000°17'1016.4
2017-Jun-19 20:25N 53°35' E 000°02'716.0
2017-Jun-19 20:00N 53°38' W 000°08'611.3
2017-Jun-19 19:30N 53°42' W 000°14'3 5.4
2017-Jun-19 19:00N 53°44' W 000°17'0 0.0
2017-Jun-19 18:30N 53°44' W 000°17'0 0.0
2017-Jun-19 18:00N 53°44' W 000°17'0 0.0
2017-Jun-19 17:30N 53°44' W 000°17'0 0.0
2017-Jun-19 17:00N 53°44' W 000°17'0 0.0
2017-Jun-19 16:29N 53°44' W 000°17'0 0.0
2017-Jun-19 15:59N 53°44' W 000°17'0 0.0
2017-Jun-19 15:29N 53°44' W 000°17'0 0.0
2017-Jun-19 14:59N 53°44' W 000°17'0 0.0
2017-Jun-19 14:25N 53°44' W 000°17'0 0.0
2017-Jun-19 13:25N 53°44' W 000°17'0 0.0
2017-Jun-19 12:58N 53°44' W 000°17'0 0.0
2017-Jun-19 12:25N 53°44' W 000°17'0 0.0
2017-Jun-19 12:00N 53°44' W 000°17'0 0.0
2017-Jun-19 11:30N 53°44' W 000°17'0 0.0
2017-Jun-19 11:00N 53°44' W 000°17'0 0.0
2017-Jun-19 10:30N 53°44' W 000°17'0 0.0
2017-Jun-19 10:00N 53°44' W 000°17'0 0.0
2017-Jun-19 09:29N 53°44' W 000°17'0 0.0
2017-Jun-19 08:59N 53°44' W 000°17'0 0.0
2017-Jun-19 08:29N 53°44' W 000°17'0 0.0
2017-Jun-19 07:59N 53°44' W 000°17'0 0.1
2017-Jun-19 07:28N 53°44' W 000°17'0 0.1
2017-Jun-19 06:58N 53°44' W 000°17'0 0.0
2017-Jun-19 06:28N 53°44' W 000°17'0 0.0
2017-Jun-19 06:00N 53°44' W 000°17'2 3.1
2017-Jun-19 05:30N 53°43' W 000°15'611.7
2017-Jun-19 05:00N 53°38' W 000°10'813.1
2017-Jun-19 04:24N 53°35' E 000°02'1415.7
2017-Jun-19 03:31N 53°33' E 000°25'017.8
2017-Jun-19 03:30N 53°32' E 000°26'1118.3
2017-Jun-19 02:53N 53°26' E 000°41'718.1
2017-Jun-19 02:30N 53°23' E 000°51'917.6
2017-Jun-19 02:00N 53°18' E 001°04'817.2
2017-Jun-19 01:30N 53°12' E 001°14'917.2
2017-Jun-19 01:00N 53°08' E 001°26'917.7
2017-Jun-19 00:30N 53°03' E 001°38'918.0
2017-Jun-19 00:00N 52°57' E 001°51'4419.1
2017-Jun-18 21:41N 52°29' E 002°47'318.9
2017-Jun-18 21:30N 52°27' E 002°52'1218.7
2017-Jun-18 20:51N 52°20' E 003°08'2129.4
2017-Jun-18 20:08N 52°08' E 003°36'0 0.0
2017-Jun-18 20:00N 52°08' E 003°36'4 7.5
2017-Jun-18 19:30N 52°06' E 003°41'918.6
2017-Jun-18 19:00N 52°02' E 003°55'917.1
2017-Jun-18 18:30N 51°58' E 004°07'2 3.0
2017-Jun-18 18:00N 51°57' E 004°08'0 0.0
2017-Jun-18 17:30N 51°57' E 004°08'0 0.0
2017-Jun-18 17:00N 51°57' E 004°08'0 0.0
2017-Jun-18 16:29N 51°57' E 004°08'0 0.0
2017-Jun-18 16:00N 51°57' E 004°08'0 0.0
2017-Jun-18 15:30N 51°57' E 004°08'0 0.0
2017-Jun-18 15:00N 51°57' E 004°08'0 0.0
2017-Jun-18 14:00N 51°57' E 004°08'0 0.0
2017-Jun-18 13:30N 51°57' E 004°08'0 0.0
2017-Jun-18 13:00N 51°57' E 004°08'0 0.0
2017-Jun-18 12:30N 51°57' E 004°08'0 0.0
2017-Jun-18 12:00N 51°57' E 004°08'0 0.0
2017-Jun-18 11:30N 51°57' E 004°08'0 0.0
2017-Jun-18 11:00N 51°57' E 004°08'0 0.0
2017-Jun-18 10:29N 51°57' E 004°08'0 0.0
2017-Jun-18 10:00N 51°57' E 004°08'0 0.0
2017-Jun-18 09:30N 51°57' E 004°08'0 0.0
2017-Jun-18 09:00N 51°57' E 004°08'0 0.0
2017-Jun-18 08:30N 51°57' E 004°08'0 0.0
2017-Jun-18 08:00N 51°57' E 004°08'0 0.0
2017-Jun-18 07:29N 51°57' E 004°08'0 0.0
2017-Jun-18 07:00N 51°57' E 004°08'3 6.0
2017-Jun-18 06:31N 51°59' E 004°05'917.5
2017-Jun-18 06:01N 52°01' E 003°51'917.1
2017-Jun-18 05:31N 52°05' E 003°38'917.9
2017-Jun-18 05:00N 52°09' E 003°25'916.9
2017-Jun-18 04:30N 52°14' E 003°14'4317.3
2017-Jun-18 02:01N 52°39' E 002°16'917.9
2017-Jun-18 01:31N 52°44' E 002°04'918.1
2017-Jun-18 01:01N 52°48' E 001°51'918.2
2017-Jun-18 00:30N 52°53' E 001°38'918.0
2017-Jun-18 00:01N 52°57' E 001°24'917.4
2017-Jun-17 23:30N 53°00' E 001°11'4716.4
2017-Jun-17 20:38N 53°32' E 000°14'214.4
2017-Jun-17 20:28N 53°32' E 000°10'714.5
2017-Jun-17 20:00N 53°35' W 000°00'612.9
2017-Jun-17 19:31N 53°38' W 000°10'510.7
2017-Jun-17 19:01N 53°43' W 000°15'2 3.7
2017-Jun-17 18:28N 53°44' W 000°17'0 0.0
2017-Jun-17 17:58N 53°44' W 000°17'0 0.0
2017-Jun-17 17:28N 53°44' W 000°17'0 0.0
2017-Jun-17 17:00N 53°44' W 000°17'0 0.0
2017-Jun-17 16:30N 53°44' W 000°17'0 0.0
2017-Jun-17 16:00N 53°44' W 000°17'0 0.0
2017-Jun-17 15:30N 53°44' W 000°17'0 0.0
2017-Jun-17 15:00N 53°44' W 000°17'0 0.0
2017-Jun-17 13:59N 53°44' W 000°17'0 0.0
2017-Jun-17 13:26N 53°44' W 000°17'0 0.0
2017-Jun-17 12:59N 53°44' W 000°17'0 0.0
2017-Jun-17 12:29N 53°44' W 000°17'0 0.0
2017-Jun-17 11:58N 53°44' W 000°17'0 0.0
2017-Jun-17 11:28N 53°44' W 000°17'0 0.0
2017-Jun-17 10:58N 53°44' W 000°17'0 0.0
2017-Jun-17 10:28N 53°44' W 000°17'0 0.0
2017-Jun-17 10:00N 53°44' W 000°17'0 0.0
2017-Jun-17 09:30N 53°44' W 000°17'0 0.0
2017-Jun-17 09:00N 53°44' W 000°17'0 0.0
2017-Jun-17 08:30N 53°44' W 000°17'0 0.0
2017-Jun-17 08:00N 53°44' W 000°17'0 0.0
2017-Jun-17 07:29N 53°44' W 000°17'0 0.0
2017-Jun-17 07:00N 53°44' W 000°17'3 6.6
2017-Jun-17 06:30N 53°42' W 000°14'612.1
2017-Jun-17 06:00N 53°37' W 000°07'817.1
2017-Jun-17 05:30N 53°34' E 000°07'2315.6
2017-Jun-17 04:04N 53°26' E 000°42'616.2
2017-Jun-17 03:40N 53°23' E 000°51'316.0
2017-Jun-17 03:29N 53°21' E 000°56'815.6
2017-Jun-17 03:00N 53°17' E 001°06'715.2
2017-Jun-17 02:30N 53°12' E 001°16'815.0
2017-Jun-17 02:00N 53°08' E 001°26'714.8
2017-Jun-17 01:30N 53°03' E 001°36'714.6
2017-Jun-17 01:00N 52°59' E 001°45'714.4
2017-Jun-17 00:30N 52°55' E 001°55'714.6
2017-Jun-17 00:00N 52°50' E 002°04'1116.2
2017-Jun-16 23:21N 52°43' E 002°18'5420.3
2017-Jun-16 20:43N 52°11' E 003°28'0 0.0
2017-Jun-16 20:30N 52°11' E 003°28'611.4
2017-Jun-16 20:00N 52°08' E 003°36'917.5
2017-Jun-16 19:30N 52°04' E 003°49'917.2
2017-Jun-16 19:00N 52°00' E 004°01'510.7
2017-Jun-16 18:30N 51°57' E 004°08'0 0.4
2017-Jun-16 18:00N 51°57' E 004°08'0 0.0
2017-Jun-16 17:30N 51°57' E 004°08'0 0.0
2017-Jun-16 16:58N 51°57' E 004°08'0 0.0
2017-Jun-16 16:30N 51°57' E 004°08'0 0.0
2017-Jun-16 16:00N 51°57' E 004°08'0 0.0
2017-Jun-16 15:30N 51°57' E 004°08'0 0.0
2017-Jun-16 15:00N 51°57' E 004°08'0 0.0
2017-Jun-16 14:00N 51°57' E 004°08'0 0.0
2017-Jun-16 13:30N 51°57' E 004°08'0 0.0
2017-Jun-16 13:00N 51°57' E 004°08'0 0.0
2017-Jun-16 12:30N 51°57' E 004°08'0 0.0
2017-Jun-16 12:00N 51°57' E 004°08'0 0.0
2017-Jun-16 11:30N 51°57' E 004°08'0 0.0
2017-Jun-16 11:00N 51°57' E 004°08'0 0.0
2017-Jun-16 10:30N 51°57' E 004°08'0 0.0
2017-Jun-16 10:00N 51°57' E 004°08'0 0.0
2017-Jun-16 09:30N 51°57' E 004°08'0 0.0
2017-Jun-16 09:00N 51°57' E 004°08'0 0.0
2017-Jun-16 08:30N 51°57' E 004°08'0 0.0
2017-Jun-16 08:00N 51°57' E 004°08'0 0.0
2017-Jun-16 07:30N 51°57' E 004°08'0 0.0
2017-Jun-16 07:00N 51°57' E 004°08'0 0.0
2017-Jun-16 06:31N 51°57' E 004°08'2 4.1
2017-Jun-16 06:01N 51°58' E 004°06'918.0
2017-Jun-16 05:31N 52°01' E 003°52'816.7
2017-Jun-16 05:00N 52°05' E 003°40'6817.5
2017-Jun-16 01:08N 52°41' E 002°07'319.4
2017-Jun-16 01:00N 52°43' E 002°03'1019.9
2017-Jun-16 00:31N 52°49' E 001°50'1020.0
2017-Jun-16 00:00N 52°54' E 001°36'1020.4
2017-Jun-15 23:31N 52°59' E 001°21'5319.6
2017-Jun-15 20:49N 53°33' E 000°13'617.3
2017-Jun-15 20:29N 53°34' E 000°04'816.6
2017-Jun-15 20:00N 53°38' W 000°08'612.8
2017-Jun-15 19:30N 53°43' W 000°14'2 4.2
2017-Jun-15 19:00N 53°44' W 000°17'0 0.0
2017-Jun-15 18:29N 53°44' W 000°17'0 0.0
2017-Jun-15 18:00N 53°44' W 000°17'0 0.0
2017-Jun-15 17:29N 53°44' W 000°17'0 0.0
2017-Jun-15 16:59N 53°44' W 000°17'0 0.0
2017-Jun-15 16:29N 53°44' W 000°17'0 0.0
2017-Jun-15 15:58N 53°44' W 000°17'0 0.0
2017-Jun-15 15:28N 53°44' W 000°17'0 0.0
2017-Jun-15 14:58N 53°44' W 000°17'0 0.0
2017-Jun-15 13:58N 53°44' W 000°17'0 0.0
2017-Jun-15 13:30N 53°44' W 000°17'0 0.0
2017-Jun-15 13:00N 53°44' W 000°17'0 0.0
2017-Jun-15 12:30N 53°44' W 000°17'0 0.0
2017-Jun-15 12:00N 53°44' W 000°17'0 0.0
2017-Jun-15 11:29N 53°44' W 000°17'0 0.0
2017-Jun-15 10:59N 53°44' W 000°17'0 0.0
2017-Jun-15 10:29N 53°44' W 000°17'0 0.0
2017-Jun-15 09:59N 53°44' W 000°17'0 0.0
2017-Jun-15 09:29N 53°44' W 000°17'0 0.0
2017-Jun-15 08:58N 53°44' W 000°17'0 0.0
2017-Jun-15 08:28N 53°44' W 000°17'0 0.0
2017-Jun-15 07:58N 53°44' W 000°17'0 0.0
2017-Jun-15 07:28N 53°44' W 000°17'0 0.0
2017-Jun-15 07:00N 53°44' W 000°17'0 0.0
2017-Jun-15 06:30N 53°44' W 000°17'0 0.0
2017-Jun-15 06:01N 53°44' W 000°17'3 5.9
2017-Jun-15 05:30N 53°42' W 000°14'713.7
2017-Jun-15 05:00N 53°37' W 000°06'917.9
2017-Jun-15 04:30N 53°34' E 000°08'2817.5
2017-Jun-15 02:55N 53°23' E 000°51'919.4
2017-Jun-15 02:28N 53°18' E 001°03'919.5
2017-Jun-15 02:00N 53°12' E 001°15'1019.3
2017-Jun-15 01:30N 53°07' E 001°28'918.5
2017-Jun-15 01:00N 53°02' E 001°41'918.3
2017-Jun-15 00:30N 52°57' E 001°54'917.9
2017-Jun-15 00:00N 52°51' E 002°06'917.8
2017-Jun-14 23:30N 52°44' E 002°15'918.3
2017-Jun-14 23:00N 52°38' E 002°26'1019.3
2017-Jun-14 22:30N 52°33' E 002°39'1019.8
2017-Jun-14 22:00N 52°27' E 002°53'1120.0
2017-Jun-14 21:26N 52°21' E 003°08'920.2
2017-Jun-14 21:00N 52°15' E 003°19'1020.3
2017-Jun-14 20:30N 52°08' E 003°32'1020.1
2017-Jun-14 20:00N 52°04' E 003°46'1019.7
2017-Jun-14 19:30N 51°60' E 004°01'510.7
2017-Jun-14 19:00N 51°57' E 004°08'0 0.4
2017-Jun-14 18:26N 51°57' E 004°08'0 0.0
2017-Jun-14 17:58N 51°57' E 004°08'0 0.0
2017-Jun-14 17:25N 51°57' E 004°08'0 0.0
2017-Jun-14 16:58N 51°57' E 004°08'0 0.0
2017-Jun-14 16:28N 51°57' E 004°08'0 0.0
2017-Jun-14 16:00N 51°57' E 004°08'0 0.0
2017-Jun-14 15:28N 51°57' E 004°08'0 0.0
2017-Jun-14 15:00N 51°57' E 004°08'0 0.0
2017-Jun-14 14:00N 51°57' E 004°08'0 0.0
2017-Jun-14 13:29N 51°57' E 004°08'0 0.0
2017-Jun-14 13:00N 51°57' E 004°08'0 0.0
2017-Jun-14 12:26N 51°57' E 004°08'0 0.0
2017-Jun-14 11:59N 51°57' E 004°08'0 0.0
2017-Jun-14 11:29N 51°57' E 004°08'0 0.0
2017-Jun-14 10:58N 51°57' E 004°08'0 0.0
2017-Jun-14 10:28N 51°57' E 004°08'0 0.0
2017-Jun-14 09:58N 51°57' E 004°08'0 0.0
2017-Jun-14 09:25N 51°57' E 004°08'0 0.0
2017-Jun-14 09:00N 51°57' E 004°08'0 0.0
2017-Jun-14 08:30N 51°57' E 004°08'0 0.0
2017-Jun-14 07:57N 51°57' E 004°08'0 0.0
2017-Jun-14 07:30N 51°57' E 004°08'0 0.0
2017-Jun-14 07:00N 51°57' E 004°08'0 0.0
2017-Jun-14 06:30N 51°57' E 004°08'2 4.4
2017-Jun-14 06:00N 51°58' E 004°06'917.1
2017-Jun-14 05:30N 52°01' E 003°53'917.8
2017-Jun-14 05:00N 52°04' E 003°39'917.6
2017-Jun-14 04:30N 52°09' E 003°27'917.4
2017-Jun-14 04:01N 52°13' E 003°15'917.5
2017-Jun-14 03:30N 52°18' E 003°03'917.7
2017-Jun-14 02:59N 52°24' E 002°51'1717.7
2017-Jun-14 02:01N 52°33' E 002°27'117.8
2017-Jun-14 01:57N 52°34' E 002°25'817.9
2017-Jun-14 01:30N 52°38' E 002°14'918.0
2017-Jun-14 01:00N 52°44' E 002°03'918.6
2017-Jun-14 00:30N 52°49' E 001°50'1019.2
2017-Jun-14 00:00N 52°53' E 001°36'1019.4
2017-Jun-13 23:30N 52°58' E 001°22'5018.5
2017-Jun-13 20:50N 53°30' E 000°19'517.1
2017-Jun-13 20:30N 53°33' E 000°11'  

Dump ship's entire track history